Time;durP1;ratioP1;P1;durP2;ratioP2;P2;SDS_P1;SDS_P2;PMS_P1;PMS_P2;Temp;Humidity;BMP_temperature;BMP_pressure;BME280_temperature;BME280_humidity;BME280_pressure;Samples;Min_cycle;Max_cycle;Signal;HPM_P1;HPM_P2
2021/04/28 00:00:22;;;;;;;8.60;5.70;;;7.00;77.10;;;;;;5050226;28;20254;-79
2021/04/28 00:03:09;;;;;;;9.43;5.47;;;6.90;77.00;;;;;;5050222;28;20198;-78
2021/04/28 00:05:54;;;;;;;9.53;5.50;;;6.90;77.00;;;;;;5050699;28;20298;-79
2021/04/28 00:08:40;;;;;;;10.53;6.07;;;6.80;76.90;;;;;;5056825;28;20198;-78
2021/04/28 00:11:26;;;;;;;9.10;5.60;;;6.70;77.40;;;;;;5050669;28;20211;-79
2021/04/28 00:14:11;;;;;;;6.60;4.63;;;6.70;78.00;;;;;;5049323;28;20235;-76
2021/04/28 00:16:56;;;;;;;11.83;5.70;;;6.60;78.00;;;;;;5056897;28;20727;-79
2021/04/28 00:19:41;;;;;;;10.80;5.73;;;6.50;78.30;;;;;;5046552;28;20246;-79
2021/04/28 00:22:26;;;;;;;8.57;5.60;;;6.50;78.60;;;;;;5052792;28;20218;-77
2021/04/28 00:25:16;;;;;;;7.13;4.90;;;6.50;78.80;;;;;;5050296;28;20207;-79
2021/04/28 00:28:01;;;;;;;9.83;6.07;;;6.40;79.50;;;;;;5047492;28;20210;-76
2021/04/28 00:30:49;;;;;;;12.17;5.40;;;6.40;80.00;;;;;;5048373;28;20721;-78
2021/04/28 00:33:33;;;;;;;9.10;6.20;;;6.40;80.20;;;;;;5050351;28;20253;-78
2021/04/28 00:36:18;;;;;;;11.87;6.00;;;6.40;80.90;;;;;;5053650;28;20708;-79
2021/04/28 00:39:03;;;;;;;14.23;6.37;;;6.40;81.90;;;;;;5056734;28;20242;-79
2021/04/28 00:41:52;;;;;;;10.27;6.60;;;6.40;82.70;;;;;;5052866;28;20218;-77
2021/04/28 00:44:37;;;;;;;11.17;6.10;;;6.30;83.50;;;;;;5057000;28;20215;-77
2021/04/28 00:47:22;;;;;;;10.73;5.83;;;6.30;83.90;;;;;;5060068;28;20198;-76
2021/04/28 00:50:09;;;;;;;8.53;5.57;;;6.20;84.50;;;;;;5053382;28;20227;-78
2021/04/28 00:52:54;;;;;;;9.83;5.67;;;6.20;84.30;;;;;;5050221;28;20719;-77
2021/04/28 00:55:39;;;;;;;9.43;6.03;;;6.10;85.00;;;;;;5043578;28;20207;-78
2021/04/28 00:58:26;;;;;;;8.10;5.67;;;6.10;85.80;;;;;;5052718;28;20223;-78
2021/04/28 01:01:12;;;;;;;10.60;6.83;;;6.10;86.80;;;;;;5045887;28;20269;-78
2021/04/28 01:03:57;;;;;;;10.97;6.23;;;6.10;87.50;;;;;;5054523;28;20752;-77
2021/04/28 01:06:44;;;;;;;9.13;5.50;;;6.10;87.60;;;;;;5041522;28;20916;-77
2021/04/28 01:09:29;;;;;;;11.90;6.17;;;6.00;87.60;;;;;;5045722;28;21691;-77
2021/04/28 01:12:14;;;;;;;10.70;5.80;;;6.00;88.20;;;;;;5050986;28;20210;-77
2021/04/28 01:15:01;;;;;;;10.67;5.87;;;6.00;88.20;;;;;;5039128;28;20287;-76
2021/04/28 01:17:46;;;;;;;11.20;6.67;;;6.00;88.60;;;;;;5047492;28;20311;-77
2021/04/28 01:20:36;;;;;;;10.30;6.17;;;5.90;89.20;;;;;;5044470;28;20226;-74
2021/04/28 01:23:22;;;;;;;10.93;6.10;;;5.90;90.10;;;;;;5044156;28;20231;-77
2021/04/28 01:26:08;;;;;;;8.67;5.47;;;5.80;90.40;;;;;;5039049;28;20700;-78
2021/04/28 01:28:55;;;;;;;8.17;5.73;;;5.80;90.30;;;;;;5045238;28;20210;-77
2021/04/28 01:31:40;;;;;;;7.77;5.03;;;5.80;90.50;;;;;;5047285;28;20245;-77
2021/04/28 01:34:26;;;;;;;9.83;6.50;;;5.80;90.60;;;;;;5045003;28;20199;-78
2021/04/28 01:37:12;;;;;;;12.20;5.90;;;5.80;90.80;;;;;;5044299;28;20296;-78
2021/04/28 01:39:59;;;;;;;7.93;5.80;;;5.80;91.10;;;;;;5047531;28;20739;-77
2021/04/28 01:42:44;;;;;;;10.00;5.47;;;5.80;91.40;;;;;;5045688;28;20303;-76
2021/04/28 01:45:33;;;;;;;11.10;5.73;;;5.80;91.80;;;;;;5047521;28;20234;-77
2021/04/28 01:48:18;;;;;;;9.07;5.63;;;5.80;92.00;;;;;;5041796;28;20263;-78
2021/04/28 01:51:03;;;;;;;9.33;6.00;;;5.80;92.50;;;;;;5048243;28;20237;-78
2021/04/28 01:53:48;;;;;;;11.17;6.63;;;5.80;93.20;;;;;;5039262;28;20758;-78
2021/04/28 01:56:35;;;;;;;10.43;5.67;;;5.80;93.80;;;;;;5041688;28;20238;-78
2021/04/28 01:59:22;;;;;;;11.17;6.50;;;5.80;94.00;;;;;;5052699;28;20226;-78
2021/04/28 02:02:09;;;;;;;9.47;6.40;;;5.70;94.90;;;;;;5056602;28;20241;-77
2021/04/28 02:04:54;;;;;;;11.90;6.60;;;5.70;94.90;;;;;;5051663;28;20207;-77
2021/04/28 02:07:41;;;;;;;10.50;6.80;;;5.70;95.30;;;;;;5044744;28;20725;-78
2021/04/28 02:10:26;;;;;;;8.27;5.73;;;5.70;95.50;;;;;;5057273;28;20226;-77
2021/04/28 02:13:14;;;;;;;9.10;5.80;;;5.70;95.70;;;;;;5052020;28;20211;-77
2021/04/28 02:16:00;;;;;;;12.03;6.10;;;5.70;96.00;;;;;;5051499;28;20270;-77
2021/04/28 02:18:47;;;;;;;10.73;6.63;;;5.70;96.10;;;;;;5049443;28;20210;-78
2021/04/28 02:21:32;;;;;;;10.80;6.63;;;5.70;96.50;;;;;;5054747;28;20296;-78
2021/04/28 02:24:17;;;;;;;16.50;5.90;;;5.70;97.00;;;;;;5043738;28;20668;-78
2021/04/28 02:27:02;;;;;;;8.53;5.57;;;5.70;96.90;;;;;;5055159;28;20595;-77
2021/04/28 02:29:48;;;;;;;11.20;6.10;;;5.60;97.00;;;;;;5048165;28;20732;-78
2021/04/28 02:32:32;;;;;;;9.50;6.63;;;5.60;97.10;;;;;;5053214;28;20262;-77
2021/04/28 02:35:19;;;;;;;8.27;5.83;;;5.60;97.20;;;;;;5047175;28;20292;-77
2021/04/28 02:38:08;;;;;;;13.40;6.40;;;5.60;97.10;;;;;;5058132;28;20304;-78
2021/04/28 02:40:55;;;;;;;10.57;5.57;;;5.60;97.30;;;;;;5046824;28;20297;-78
2021/04/28 02:43:42;;;;;;;11.93;6.37;;;5.60;97.60;;;;;;5057502;28;20203;-78
2021/04/28 02:46:29;;;;;;;8.70;5.93;;;5.60;98.10;;;;;;5055176;28;20243;-77
2021/04/28 02:49:14;;;;;;;10.37;5.90;;;5.60;98.30;;;;;;5052173;28;20202;-78
2021/04/28 02:52:00;;;;;;;9.83;5.60;;;5.60;98.50;;;;;;5048994;28;20230;-78
2021/04/28 02:54:45;;;;;;;11.93;5.93;;;5.50;98.40;;;;;;5053716;28;20254;-78
2021/04/28 02:57:31;;;;;;;8.07;5.57;;;5.50;98.30;;;;;;5056706;28;20309;-78
2021/04/28 03:00:21;;;;;;;10.77;5.47;;;5.60;98.10;;;;;;5054369;28;20241;-78
2021/04/28 03:03:08;;;;;;;12.40;5.93;;;5.60;97.90;;;;;;5053745;28;20214;-76
2021/04/28 03:05:53;;;;;;;12.83;5.80;;;5.60;97.80;;;;;;5052804;28;20607;-76
2021/04/28 03:08:39;;;;;;;9.00;4.93;;;5.60;97.90;;;;;;5055073;28;20277;-76
2021/04/28 03:11:24;;;;;;;9.87;5.37;;;5.60;97.80;;;;;;5051717;28;20249;-77
2021/04/28 03:14:09;;;;;;;8.67;5.40;;;5.60;98.10;;;;;;5045935;28;20225;-77
2021/04/28 03:16:55;;;;;;;8.30;5.47;;;5.60;98.50;;;;;;5052709;28;20219;-77
2021/04/28 03:19:40;;;;;;;9.10;5.93;;;5.60;98.80;;;;;;5045199;28;20297;-76
2021/04/28 03:22:25;;;;;;;9.17;5.97;;;5.60;99.00;;;;;;5053478;28;20648;-77
2021/04/28 03:25:14;;;;;;;10.57;6.03;;;5.60;99.30;;;;;;5050399;28;20231;-76
2021/04/28 03:27:59;;;;;;;15.57;6.20;;;5.60;99.40;;;;;;5045747;28;20211;-76
2021/04/28 03:30:44;;;;;;;11.40;6.40;;;5.60;99.70;;;;;;5050075;28;20285;-76
2021/04/28 03:33:29;;;;;;;12.03;6.13;;;5.60;99.60;;;;;;5046725;28;20583;-76
2021/04/28 03:36:15;;;;;;;7.47;5.80;;;5.60;99.80;;;;;;5047667;28;20331;-76
2021/04/28 03:39:00;;;;;;;8.63;5.90;;;5.50;99.80;;;;;;5049303;28;20197;-76
2021/04/28 03:41:44;;;;;;;11.00;5.73;;;5.50;99.80;;;;;;5049871;28;20708;-76
2021/04/28 03:44:29;;;;;;;11.70;6.30;;;5.50;99.70;;;;;;5052733;28;20326;-76
2021/04/28 03:47:14;;;;;;;10.90;5.87;;;5.50;99.70;;;;;;5048770;28;20267;-76
2021/04/28 03:49:59;;;;;;;10.77;6.90;;;5.40;99.70;;;;;;5052412;28;20262;-77
2021/04/28 03:52:45;;;;;;;12.37;6.90;;;5.40;99.70;;;;;;5033294;28;20207;-75
2021/04/28 03:55:30;;;;;;;12.00;6.37;;;5.40;99.90;;;;;;5034438;28;20505;-76
2021/04/28 03:58:14;;;;;;;10.83;6.90;;;5.40;99.90;;;;;;5052554;28;20252;-77
2021/04/28 04:00:59;;;;;;;11.77;6.40;;;5.40;99.90;;;;;;5051506;28;20342;-76
2021/04/28 04:03:44;;;;;;;13.73;7.20;;;5.40;99.90;;;;;;5046878;28;20289;-77
2021/04/28 04:06:28;;;;;;;10.17;7.07;;;5.30;99.90;;;;;;5050072;28;20218;-76
2021/04/28 04:09:14;;;;;;;10.10;6.63;;;5.30;99.90;;;;;;5045440;28;20246;-76
2021/04/28 04:11:58;;;;;;;10.37;6.43;;;5.30;99.90;;;;;;5050900;28;20243;-76
2021/04/28 04:14:43;;;;;;;12.37;6.83;;;5.30;99.90;;;;;;5053163;28;20218;-76
2021/04/28 04:17:28;;;;;;;13.53;7.00;;;5.20;99.90;;;;;;5054397;28;20255;-76
2021/04/28 04:20:13;;;;;;;12.87;6.90;;;5.20;99.90;;;;;;5043400;28;20306;-76
2021/04/28 04:22:58;;;;;;;11.00;6.70;;;5.20;99.90;;;;;;5054200;28;20214;-76
2021/04/28 04:25:43;;;;;;;10.93;6.50;;;5.20;99.90;;;;;;5040679;28;20213;-76
2021/04/28 04:28:28;;;;;;;15.30;9.07;;;5.20;99.90;;;;;;5049060;28;20213;-77
2021/04/28 04:31:13;;;;;;;11.53;7.00;;;5.20;99.90;;;;;;5042358;28;20234;-76
2021/04/28 04:33:57;;;;;;;14.77;7.53;;;5.10;99.90;;;;;;5043842;28;20216;-75
2021/04/28 04:36:43;;;;;;;15.87;7.57;;;5.10;99.90;;;;;;5046876;28;20214;-76
2021/04/28 04:39:28;;;;;;;13.27;6.87;;;5.10;99.90;;;;;;5054896;28;20254;-76
2021/04/28 04:42:14;;;;;;;18.47;7.57;;;5.10;99.90;;;;;;5050706;28;20202;-76
2021/04/28 04:44:59;;;;;;;15.07;7.40;;;5.10;99.90;;;;;;5053125;28;20214;-76
2021/04/28 04:47:43;;;;;;;11.23;7.10;;;5.10;99.90;;;;;;5054258;28;20256;-76
2021/04/28 04:50:28;;;;;;;13.30;7.13;;;5.10;99.90;;;;;;5057654;28;20229;-76
2021/04/28 04:53:13;;;;;;;14.33;7.60;;;5.10;99.90;;;;;;5060023;28;20206;-76
2021/04/28 04:55:58;;;;;;;17.17;7.90;;;5.10;99.90;;;;;;5057345;28;20290;-75
2021/04/28 04:58:44;;;;;;;15.00;7.80;;;5.10;99.90;;;;;;5058775;28;20215;-76
2021/04/28 05:01:29;;;;;;;16.00;7.37;;;5.10;99.90;;;;;;5057130;28;20241;-76
2021/04/28 05:04:14;;;;;;;12.70;7.87;;;5.10;99.90;;;;;;5058832;28;20214;-76
2021/04/28 05:06:58;;;;;;;12.07;7.37;;;5.10;99.90;;;;;;5055003;28;20261;-76
2021/04/28 05:09:43;;;;;;;10.77;6.67;;;5.10;99.90;;;;;;5060137;28;20284;-76
2021/04/28 05:12:28;;;;;;;11.70;7.57;;;5.20;99.90;;;;;;5058176;28;20237;-76
2021/04/28 05:15:15;;;;;;;13.07;7.57;;;5.20;99.90;;;;;;5055352;28;20241;-76
2021/04/28 05:18:00;;;;;;;13.73;6.73;;;5.20;99.90;;;;;;5047262;28;20270;-75
2021/04/28 05:20:45;;;;;;;13.93;7.43;;;5.20;99.90;;;;;;5048541;28;20396;-76
2021/04/28 05:23:30;;;;;;;13.03;6.97;;;5.30;99.90;;;;;;5055180;28;20214;-74
2021/04/28 05:26:14;;;;;;;16.03;7.40;;;5.30;99.90;;;;;;5052078;28;20620;-76
2021/04/28 05:28:59;;;;;;;13.10;7.40;;;5.30;99.90;;;;;;5056260;28;20572;-75
2021/04/28 05:31:44;;;;;;;11.00;6.83;;;5.40;99.90;;;;;;5052357;28;20242;-75
2021/04/28 05:34:29;;;;;;;11.60;6.87;;;5.40;99.90;;;;;;5062672;28;20219;-75
2021/04/28 05:37:18;;;;;;;16.50;6.93;;;5.40;99.90;;;;;;5056582;28;20226;-76
2021/04/28 05:40:04;;;;;;;11.57;5.90;;;5.40;99.90;;;;;;5056916;28;20222;-75
2021/04/28 05:42:50;;;;;;;12.33;7.17;;;5.50;99.90;;;;;;5054222;28;20226;-76
2021/04/28 05:45:43;;;;;;;10.10;6.67;;;5.60;99.90;;;;;;5055489;28;20720;-76
2021/04/28 05:48:29;;;;;;;11.73;7.03;;;5.70;99.90;;;;;;5066909;28;20353;-79
2021/04/28 05:51:13;;;;;;;11.67;6.97;;;5.70;99.90;;;;;;5056624;28;20306;-78
2021/04/28 05:53:59;;;;;;;14.33;6.53;;;5.80;99.90;;;;;;5063202;28;20205;-77
2021/04/28 05:56:44;;;;;;;10.60;6.73;;;5.90;99.90;;;;;;5057603;28;20226;-78
2021/04/28 05:59:29;;;;;;;14.73;6.73;;;6.00;99.90;;;;;;5058222;28;20229;-78
2021/04/28 06:02:14;;;;;;;14.93;6.83;;;6.10;99.90;;;;;;5064605;28;20249;-79
2021/04/28 06:05:00;;;;;;;10.57;6.53;;;6.10;99.90;;;;;;5054878;28;20214;-76
2021/04/28 06:07:45;;;;;;;10.37;6.87;;;6.20;99.90;;;;;;5050029;28;20202;-77
2021/04/28 06:10:30;;;;;;;11.70;6.10;;;6.30;99.90;;;;;;5060973;28;20226;-78
2021/04/28 06:13:15;;;;;;;15.63;7.47;;;6.40;99.90;;;;;;5059963;28;20253;-78
2021/04/28 06:16:00;;;;;;;12.37;7.37;;;6.40;99.90;;;;;;5060992;28;20202;-76
2021/04/28 06:18:44;;;;;;;13.67;6.63;;;6.60;99.90;;;;;;5061172;28;20230;-77
2021/04/28 06:21:30;;;;;;;9.83;5.87;;;6.60;99.90;;;;;;5061413;28;20202;-77
2021/04/28 06:24:27;;;;;;;11.07;7.17;;;6.70;99.90;;;;;;5054406;28;20229;-77
2021/04/28 06:27:12;;;;;;;12.40;7.40;;;6.90;99.90;;;;;;5062171;28;20787;-77
2021/04/28 06:29:56;;;;;;;7.97;6.10;;;7.00;99.90;;;;;;5048327;28;20227;-78
2021/04/28 06:32:41;;;;;;;8.70;6.30;;;7.10;99.90;;;;;;5055465;28;20230;-76
2021/04/28 06:35:26;;;;;;;12.27;7.30;;;7.20;99.90;;;;;;5044632;28;20694;-78
2021/04/28 06:38:12;;;;;;;15.00;7.37;;;7.30;99.90;;;;;;5050693;28;20274;-77
2021/04/28 06:40:56;;;;;;;10.20;6.70;;;7.50;99.90;;;;;;5059030;28;20296;-77
2021/04/28 06:43:41;;;;;;;15.80;7.33;;;7.60;99.90;;;;;;5051573;28;20202;-76
2021/04/28 06:46:26;;;;;;;10.07;6.77;;;7.70;99.90;;;;;;5047425;28;20215;-77
2021/04/28 06:49:11;;;;;;;9.60;6.63;;;7.80;99.90;;;;;;5053575;28;20215;-76
2021/04/28 06:51:56;;;;;;;12.07;6.17;;;7.90;99.90;;;;;;5047284;28;20238;-78
2021/04/28 06:54:41;;;;;;;13.77;6.40;;;8.00;99.90;;;;;;5055198;28;20227;-76
2021/04/28 06:57:26;;;;;;;9.43;6.30;;;8.10;99.30;;;;;;5050627;28;20712;-78
2021/04/28 07:00:12;;;;;;;9.73;6.67;;;8.30;99.10;;;;;;5043780;28;20227;-76
2021/04/28 07:02:58;;;;;;;12.07;6.57;;;8.40;99.00;;;;;;5058277;28;20212;-77
2021/04/28 07:05:42;;;;;;;13.93;6.60;;;8.60;99.00;;;;;;5048772;28;20206;-76
2021/04/28 07:08:27;;;;;;;10.67;7.20;;;8.70;98.70;;;;;;5054048;28;20222;-78
2021/04/28 07:11:13;;;;;;;11.17;6.07;;;8.90;98.60;;;;;;5061921;28;20223;-79
2021/04/28 07:13:57;;;;;;;8.90;6.00;;;9.00;98.10;;;;;;5055750;28;20265;-77
2021/04/28 07:16:42;;;;;;;12.13;6.50;;;9.20;98.00;;;;;;5046829;28;20210;-78
2021/04/28 07:19:27;;;;;;;15.77;6.97;;;9.40;98.00;;;;;;5046179;28;20282;-77
2021/04/28 07:22:12;;;;;;;11.17;6.97;;;9.50;97.60;;;;;;5044720;28;20244;-78
2021/04/28 07:24:57;;;;;;;11.33;6.57;;;9.60;97.50;;;;;;5056372;28;20622;-77
2021/04/28 07:27:43;;;;;;;9.27;5.87;;;9.70;96.80;;;;;;5055981;28;20200;-79
2021/04/28 07:30:28;;;;;;;11.37;6.57;;;9.90;96.80;;;;;;5049101;28;20224;-76
2021/04/28 07:33:13;;;;;;;9.80;6.97;;;10.00;96.30;;;;;;5049562;28;20212;-77
2021/04/28 07:35:58;;;;;;;13.33;7.40;;;10.10;96.60;;;;;;5054981;28;20224;-77
2021/04/28 07:38:43;;;;;;;12.50;6.83;;;10.20;96.20;;;;;;5057186;28;20221;-77
2021/04/28 07:41:28;;;;;;;11.03;7.10;;;10.30;96.00;;;;;;5057307;28;20211;-78
2021/04/28 07:44:15;;;;;;;10.93;7.40;;;10.40;95.70;;;;;;5057584;28;20216;-77
2021/04/28 07:47:00;;;;;;;11.60;6.80;;;10.60;95.30;;;;;;5054048;28;20260;-77
2021/04/28 07:49:45;;;;;;;8.80;6.90;;;10.70;95.70;;;;;;5055125;28;20228;-77
2021/04/28 07:52:31;;;;;;;11.10;6.90;;;10.80;95.20;;;;;;5058311;28;20219;-78
2021/04/28 07:55:16;;;;;;;12.87;7.60;;;11.00;94.50;;;;;;5042854;28;20327;-77
2021/04/28 07:58:02;;;;;;;12.73;8.17;;;11.10;94.10;;;;;;5059753;28;20215;-78
2021/04/28 08:00:48;;;;;;;12.97;7.30;;;11.20;94.20;;;;;;5062865;28;20230;-79
2021/04/28 08:03:33;;;;;;;10.17;7.37;;;11.40;94.40;;;;;;5058066;28;20212;-77
2021/04/28 08:06:18;;;;;;;10.83;6.67;;;11.50;94.30;;;;;;5057721;28;20273;-76
2021/04/28 08:09:04;;;;;;;11.97;7.40;;;11.60;93.60;;;;;;5062613;28;20227;-78
2021/04/28 08:11:49;;;;;;;11.23;6.87;;;11.80;93.30;;;;;;5055699;28;20212;-77
2021/04/28 08:14:34;;;;;;;12.03;8.33;;;12.00;93.80;;;;;;5057028;28;20827;-78
2021/04/28 08:17:20;;;;;;;10.40;7.30;;;12.00;93.10;;;;;;5057617;28;20766;-78
2021/04/28 08:20:07;;;;;;;9.70;6.33;;;12.10;94.20;;;;;;5053662;28;20292;-77
2021/04/28 08:22:52;;;;;;;10.70;7.67;;;12.30;94.60;;;;;;5060292;28;20266;-77
2021/04/28 08:25:37;;;;;;;10.90;6.87;;;12.40;93.30;;;;;;5056365;28;20216;-76
2021/04/28 08:28:25;;;;;;;12.00;6.93;;;12.60;94.00;;;;;;5052863;28;20221;-77
2021/04/28 08:31:11;;;;;;;11.03;7.47;;;12.70;93.10;;;;;;5052333;28;21048;-78
2021/04/28 08:33:57;;;;;;;16.50;7.03;;;12.90;92.70;;;;;;5054185;28;20730;-77
2021/04/28 08:36:42;;;;;;;10.80;7.70;;;13.10;91.60;;;;;;5065216;28;20205;-77
2021/04/28 08:39:26;;;;;;;15.23;8.10;;;13.30;91.90;;;;;;5061841;28;20231;-76
2021/04/28 08:42:11;;;;;;;12.23;7.43;;;13.50;92.70;;;;;;5058737;28;20245;-77
2021/04/28 08:45:00;;;;;;;18.07;8.40;;;13.60;91.40;;;;;;5051806;28;20218;-77
2021/04/28 08:47:45;;;;;;;10.93;7.10;;;13.70;91.10;;;;;;5058468;28;20614;-77
2021/04/28 08:50:30;;;;;;;11.13;7.67;;;13.80;91.10;;;;;;5063427;28;20289;-77
2021/04/28 08:53:16;;;;;;;13.13;7.33;;;13.80;91.10;;;;;;5062897;28;20218;-79
2021/04/28 08:56:06;;;;;;;10.93;7.23;;;13.90;92.20;;;;;;5049526;28;20216;-76
2021/04/28 08:58:51;;;;;;;11.20;6.97;;;13.90;92.10;;;;;;5065281;28;20261;-76
2021/04/28 09:01:38;;;;;;;12.13;7.37;;;14.00;91.80;;;;;;5064707;28;20202;-77
2021/04/28 09:04:24;;;;;;;11.87;7.50;;;14.10;91.80;;;;;;5050548;28;20253;-77
2021/04/28 09:07:10;;;;;;;11.53;7.13;;;14.20;90.10;;;;;;5047698;28;20202;-77
2021/04/28 09:10:03;;;;;;;11.20;7.90;;;14.30;90.40;;;;;;5058205;28;20226;-78
2021/04/28 09:12:54;;;;;;;12.20;8.30;;;14.50;89.30;;;;;;5053745;28;20226;-77
2021/04/28 09:15:42;;;;;;;13.00;8.53;;;14.70;89.30;;;;;;5052489;28;20269;-77
2021/04/28 09:18:36;;;;;;;13.93;7.63;;;14.90;88.80;;;;;;5059489;28;20221;-78
2021/04/28 09:21:52;;;;;;;10.90;8.37;;;15.10;88.90;;;;;;5045319;28;20229;-78
2021/04/28 09:24:48;;;;;;;10.53;7.50;;;15.40;87.20;;;;;;5050960;28;20265;-79
2021/04/28 09:27:34;;;;;;;13.90;8.37;;;15.70;86.10;;;;;;5051910;28;20258;-78
2021/04/28 09:30:24;;;;;;;11.30;7.73;;;16.20;83.50;;;;;;5060688;28;20257;-78
2021/04/28 09:33:08;;;;;;;15.10;8.60;;;16.70;82.40;;;;;;5047050;28;20206;-77
2021/04/28 09:35:58;;;;;;;17.13;8.53;;;17.30;80.10;;;;;;5055505;28;20242;-77
2021/04/28 09:38:50;;;;;;;11.47;8.33;;;17.90;78.60;;;;;;5050881;28;20865;-77
2021/04/28 09:41:39;;;;;;;14.90;8.00;;;18.60;77.80;;;;;;5056636;28;20295;-77
2021/04/28 09:44:29;;;;;;;15.43;8.90;;;19.30;72.90;;;;;;5050092;28;20573;-79
2021/04/28 09:47:16;;;;;;;11.90;8.10;;;20.00;70.30;;;;;;5059579;28;20259;-78
2021/04/28 09:50:03;;;;;;;10.63;8.50;;;20.70;68.80;;;;;;5054137;28;20233;-78
2021/04/28 09:52:47;;;;;;;13.13;8.33;;;21.40;64.70;;;;;;5060545;28;20264;-77
2021/04/28 09:55:45;;;;;;;11.97;8.30;;;22.10;62.80;;;;;;5050423;28;20580;-77
2021/04/28 09:58:50;;;;;;;11.33;7.57;;;22.80;60.20;;;;;;5063669;28;20228;-78
2021/04/28 10:01:36;;;;;;;12.33;8.27;;;23.40;60.30;;;;;;5059729;28;20214;-79
2021/04/28 10:04:27;;;;;;;11.97;8.77;;;23.90;55.70;;;;;;5052895;28;20257;-78
2021/04/28 10:07:23;;;;;;;11.17;9.00;;;24.50;56.10;;;;;;5053783;28;20205;-78
2021/04/28 10:10:09;;;;;;;11.57;8.20;;;24.90;54.80;;;;;;5064534;28;20300;-78
2021/04/28 10:12:54;;;;;;;12.63;10.00;;;25.20;54.40;;;;;;5057863;28;20222;-78
2021/04/28 10:15:40;;;;;;;11.93;8.32;;;25.60;52.50;;;;;;5063553;28;20262;-78
2021/04/28 10:18:28;;;;;;;12.77;9.73;;;26.00;51.30;;;;;;5061506;28;20226;-77
2021/04/28 10:21:16;;;;;;;12.27;8.90;;;26.50;49.00;;;;;;5064354;28;20265;-78
2021/04/28 10:24:02;;;;;;;13.50;9.60;;;27.10;48.00;;;;;;5058890;28;20622;-77
2021/04/28 10:26:48;;;;;;;12.95;9.75;;;27.60;46.70;;;;;;5048298;28;20252;-77
2021/04/28 10:29:35;;;;;;;13.07;9.32;;;28.20;46.80;;;;;;5041630;28;20254;-76
2021/04/28 10:32:23;;;;;;;16.15;10.07;;;28.60;45.50;;;;;;5044778;28;20629;-79
2021/04/28 10:35:11;;;;;;;13.23;9.60;;;29.00;45.50;;;;;;5054493;28;20214;-77
2021/04/28 10:37:57;;;;;;;13.30;9.85;;;29.30;44.40;;;;;;5063697;28;20265;-77
2021/04/28 10:40:42;;;;;;;13.43;10.80;;;29.50;43.20;;;;;;5051829;28;20238;-77
2021/04/28 10:43:35;;;;;;;12.48;10.50;;;29.70;42.90;;;;;;5063304;28;20227;-78
2021/04/28 10:46:21;;;;;;;11.55;9.93;;;29.80;43.20;;;;;;5057025;28;20206;-78
2021/04/28 10:49:19;;;;;;;11.70;9.50;;;30.10;43.50;;;;;;5054985;28;20597;-79
2021/04/28 10:52:26;;;;;;;10.00;8.68;;;30.40;43.40;;;;;;5053483;28;20207;-78
2021/04/28 10:55:50;;;;;;;11.63;9.38;;;30.70;43.30;;;;;;5044784;28;20291;-79
2021/04/28 10:58:46;;;;;;;12.70;9.60;;;31.00;42.70;;;;;;5057579;28;20635;-78
2021/04/28 11:01:32;;;;;;;14.48;10.77;;;31.40;41.20;;;;;;5057870;28;20207;-79
2021/04/28 11:04:20;;;;;;;11.98;9.98;;;31.80;39.90;;;;;;5055306;28;20210;-79
2021/04/28 11:07:07;;;;;;;11.40;10.23;;;32.20;41.20;;;;;;5061043;28;20207;-79
2021/04/28 11:09:52;;;;;;;11.65;10.45;;;32.60;39.50;;;;;;5056703;28;20249;-78
2021/04/28 11:13:01;;;;;;;12.02;10.18;;;33.00;39.00;;;;;;5054314;28;20918;-78
2021/04/28 11:15:51;;;;;;;13.65;10.65;;;33.20;38.70;;;;;;5051699;28;20215;-77
2021/04/28 11:18:38;;;;;;;12.43;10.95;;;33.20;37.10;;;;;;5057855;28;20238;-78
2021/04/28 11:21:28;;;;;;;12.77;10.25;;;33.20;38.10;;;;;;5050397;28;20226;-78
2021/04/28 11:24:14;;;;;;;13.48;10.50;;;33.20;38.70;;;;;;5041965;28;20203;-78
2021/04/28 11:26:59;;;;;;;11.50;10.30;;;33.20;38.40;;;;;;5047694;28;20295;-78
2021/04/28 11:29:56;;;;;;;17.30;11.02;;;33.40;39.00;;;;;;5049038;28;20231;-78
2021/04/28 11:32:41;;;;;;;14.52;10.85;;;33.70;37.10;;;;;;5054612;28;20250;-79
2021/04/28 11:35:25;;;;;;;13.18;10.50;;;33.90;37.00;;;;;;5052447;28;20253;-80
2021/04/28 11:38:13;;;;;;;11.95;10.75;;;34.30;37.00;;;;;;5043351;28;20230;-78
2021/04/28 11:41:01;;;;;;;14.80;10.77;;;34.50;36.30;;;;;;5043914;28;20814;-79
2021/04/28 11:43:48;;;;;;;13.25;11.63;;;34.70;37.10;;;;;;5049509;28;20223;-78
2021/04/28 11:46:33;;;;;;;13.88;12.38;;;35.00;35.00;;;;;;5050519;28;20226;-79
2021/04/28 11:49:18;;;;;;;13.40;12.07;;;35.10;34.90;;;;;;5051034;28;20203;-78
2021/04/28 11:52:03;;;;;;;15.38;11.43;;;35.10;34.60;;;;;;5047133;28;20574;-78
2021/04/28 11:54:54;;;;;;;11.98;10.07;;;35.10;35.00;;;;;;5044392;28;20253;-78
2021/04/28 11:57:39;;;;;;;18.65;12.27;;;35.10;36.70;;;;;;5050749;28;20222;-78
2021/04/28 12:00:32;;;;;;;12.95;10.38;;;35.10;34.40;;;;;;5052521;28;20719;-79
2021/04/28 12:03:17;;;;;;;14.52;12.02;;;35.00;35.50;;;;;;5049644;28;20283;-78
2021/04/28 12:06:31;;;;;;;12.85;10.57;;;34.90;35.60;;;;;;5042906;28;20203;-79
2021/04/28 12:09:27;;;;;;;15.27;11.32;;;35.00;36.90;;;;;;5049661;28;20203;-78
2021/04/28 12:12:19;;;;;;;14.63;12.73;;;35.00;34.90;;;;;;5055113;28;20201;-78
2021/04/28 12:15:14;;;;;;;13.52;11.13;;;35.10;34.50;;;;;;5046747;28;20199;-79
2021/04/28 12:17:59;;;;;;;15.88;12.73;;;35.40;34.20;;;;;;5050212;28;20273;-79
2021/04/28 12:20:45;;;;;;;12.25;11.05;;;35.60;33.60;;;;;;5051106;28;20261;-78
2021/04/28 12:23:30;;;;;;;14.02;12.25;;;35.80;33.40;;;;;;5038137;28;20242;-80
2021/04/28 12:26:14;;;;;;;14.80;12.45;;;35.90;33.10;;;;;;5037537;28;20203;-78
2021/04/28 12:29:00;;;;;;;13.73;11.45;;;36.00;32.80;;;;;;5051582;28;20613;-78
2021/04/28 12:31:46;;;;;;;12.75;10.75;;;36.10;33.10;;;;;;5046573;28;20276;-80
2021/04/28 12:34:30;;;;;;;14.43;11.18;;;36.20;34.20;;;;;;5047771;28;20246;-76
2021/04/28 12:37:22;;;;;;;13.20;11.35;;;36.20;33.40;;;;;;5048679;28;20210;-80
2021/04/28 12:40:10;;;;;;;14.43;12.00;;;36.20;33.10;;;;;;5040827;28;20215;-78
2021/04/28 12:42:54;;;;;;;15.23;12.63;;;36.30;33.10;;;;;;5062378;28;20210;-79
2021/04/28 12:45:40;;;;;;;14.32;11.68;;;36.40;31.60;;;;;;5061574;28;20218;-79
2021/04/28 12:48:25;;;;;;;12.73;10.18;;;36.40;31.70;;;;;;5039350;28;20243;-79
2021/04/28 12:51:15;;;;;;;12.63;10.77;;;36.40;32.40;;;;;;5051849;28;20916;-79
2021/04/28 12:54:00;;;;;;;12.85;11.55;;;36.40;33.30;;;;;;5052150;28;20238;-79
2021/04/28 12:56:46;;;;;;;13.73;11.20;;;36.40;31.10;;;;;;5046967;28;20604;-78
2021/04/28 12:59:31;;;;;;;15.05;11.07;;;36.50;32.40;;;;;;5056819;28;20662;-80
2021/04/28 13:02:18;;;;;;;13.75;9.90;;;36.50;31.70;;;;;;5053767;28;20202;-79
2021/04/28 13:05:06;;;;;;;11.32;9.85;;;36.40;32.90;;;;;;5047336;28;20579;-78
2021/04/28 13:07:51;;;;;;;14.35;11.85;;;36.30;34.00;;;;;;5046260;28;20357;-78
2021/04/28 13:10:35;;;;;;;16.35;10.55;;;36.30;32.10;;;;;;5054532;28;20614;-80
2021/04/28 13:13:40;;;;;;;11.10;9.95;;;36.30;32.20;;;;;;5058106;28;20202;-79
2021/04/28 13:16:34;;;;;;;12.35;10.85;;;36.30;34.10;;;;;;5051667;28;20235;-81
2021/04/28 13:19:26;;;;;;;13.00;11.32;;;36.40;32.30;;;;;;5055468;28;20284;-79
2021/04/28 13:22:14;;;;;;;14.98;11.40;;;36.50;32.80;;;;;;5042177;28;20206;-79
2021/04/28 13:25:01;;;;;;;17.25;10.57;;;36.60;32.20;;;;;;5046241;28;20610;-79
2021/04/28 13:27:46;;;;;;;16.63;10.68;;;36.70;31.90;;;;;;5052843;28;20210;-79
2021/04/28 13:30:31;;;;;;;17.83;10.85;;;36.80;32.00;;;;;;5047761;28;20249;-78
2021/04/28 13:33:16;;;;;;;16.35;10.93;;;36.80;32.40;;;;;;5056971;28;20239;-77
2021/04/28 13:36:01;;;;;;;12.70;11.20;;;36.70;31.70;;;;;;5043389;28;20258;-79
2021/04/28 13:38:47;;;;;;;13.30;11.75;;;36.70;31.50;;;;;;5047475;28;20223;-80
2021/04/28 13:41:33;;;;;;;15.77;10.80;;;36.50;32.10;;;;;;5053053;28;20203;-79
2021/04/28 13:44:21;;;;;;;12.65;11.10;;;36.40;32.30;;;;;;5062399;28;20207;-77
2021/04/28 13:47:06;;;;;;;11.82;9.70;;;36.10;32.60;;;;;;5049832;28;20201;-78
2021/04/28 13:49:51;;;;;;;12.43;11.18;;;35.80;33.30;;;;;;5051324;28;20527;-79
2021/04/28 13:52:38;;;;;;;12.38;11.07;;;35.50;33.00;;;;;;5060426;28;20222;-78
2021/04/28 13:55:23;;;;;;;13.45;11.45;;;35.40;33.30;;;;;;5050304;28;20202;-79
2021/04/28 13:58:08;;;;;;;12.65;11.05;;;35.40;32.40;;;;;;5054594;28;20238;-78
2021/04/28 14:00:53;;;;;;;14.02;11.70;;;35.50;31.90;;;;;;5050216;28;20238;-79
2021/04/28 14:03:38;;;;;;;13.68;9.88;;;35.50;32.40;;;;;;5046025;28;20707;-79
2021/04/28 14:06:24;;;;;;;16.02;11.55;;;35.50;33.50;;;;;;5052514;28;20692;-79
2021/04/28 14:09:12;;;;;;;16.05;11.38;;;35.60;32.20;;;;;;5055925;28;20245;-80
2021/04/28 14:11:57;;;;;;;16.60;11.50;;;35.80;32.40;;;;;;5054647;28;20238;-80
2021/04/28 14:14:42;;;;;;;13.68;11.10;;;35.90;32.20;;;;;;5048501;28;20279;-79
2021/04/28 14:17:26;;;;;;;15.43;11.50;;;36.00;33.20;;;;;;5056543;28;20206;-79
2021/04/28 14:20:13;;;;;;;13.45;10.93;;;36.00;31.90;;;;;;5056626;28;20242;-79